MPTOSKSP

Guest
Details From MPTO - Tocumen Intl
To SKSP - GUSTAVO ROJAS PINILLA
Flight Number -
Tags generated
Created
Modified
Stats Distance 256 nm / 474 km
Max Altitude 30,400 ft / 9,266 m
Waypoints 4
Social Downloads 0
Likes 0
Share

Download

Looking for another format? Having issues loading an existing format? Contact us
Advertisement - Login to hide

Notes

Basic altitude profile: - Ascent Rate: 2500ft/min - Ascent Speed: 250kts - Cruise Altitude: 35000ft - Cruise Speed: 420kts - Descent Rate: 1500ft/min - Descent Speed: 250kts Options: - Use NATs: yes - Use PACOTS: yes - Use low airways: yes - Use high airways: yes

Route

MPTO SEKMA UG447 SPP SKSP

ID Type Via Altitude (ft/m) Position (lat/lon) Dist (leg/tot) Name
O MPTO APT - 0 / 0 9.07136 / -79.38346 - / 0 nm Tocumen Intl
SEKMA FIX - 30,400 / 9,266 10.41956 / -79.84064 85 / 85 nm
SPP VOR UG447 (AWY-HI) 18,500 / 5,639 12.58250 / -81.70500 170 / 255 nm SAN ANDRES VOR-DME
O SKSP APT - 0 / 0 12.58359 / -81.71119 0 / 255 nm GUSTAVO ROJAS PINILLA

Altitude Profile

Advertisement - Login to hide

Weather


0- 5 10 15 20 25 30 35+ Temperature / °C

Clouds and Precipitation
Forecast for 2022-05-27 06:00 UTC. Updated 3 hours ago

Ground ~20,000 ft ~40,000 ft Winds

MPTO

Details ICAO MPTO (PTY)
Name Tocumen Intl
Region Panama
Timezone America/Panama (UTC-5.0)
Stats Elevation 134 ft / 41 m (AMSL)
Location 9.071400° -79.383500°
Runways 2
Magnetic Variation 5.170° W

METAR

Not found

TAF

TAF MPTO 270500Z 2706/2812 35004KT 9999 SCT018 SCT090 TEMPO 2708/2712 VRB02KT TEMPO 2714/2718 21006KT 9999 SCT016 SCT090 PROB40 2718/2722 15008KT 6000 TSRA SCT015CB BKN080 TEMPO 2802/2806 00000KT 9999 SCT016 SCT090

Decode

Departure Runways

ID Width Length Bearing (true/mag) Surface Threshold Overrun Markings Lighting
03L 148 ft / 45 m 8,832 ft / 2,692 m 30.67° / 35.84° ASPHALT 814 ft / 248 m 0 ft / 0 m PREC-APP EDGE THRESHOLD ALSF-I REIL-OMNI
03R 148 ft / 45 m 10,049 ft / 3,063 m 29.33° / 34.50° CONCRETE 0 ft / 0 m 0 ft / 0 m PREC-APP CENTERLINE EDGE THRESHOLD ALSF-I TDZ REIL-OMNI
21L 148 ft / 45 m 10,049 ft / 3,063 m 209.33° / 214.50° CONCRETE 0 ft / 0 m 0 ft / 0 m PREC-APP CENTERLINE EDGE THRESHOLD REIL-OMNI
21R 148 ft / 45 m 8,832 ft / 2,692 m 210.67° / 215.84° ASPHALT 0 ft / 0 m 0 ft / 0 m PREC-APP EDGE THRESHOLD REIL-OMNI

SKSP

Details ICAO SKSP (ADZ)
Name Gustavo Rojas Pinilla Intl
Region Colombia
Timezone Unknown
Stats Elevation 19 ft / 6 m (AMSL)
Location 12.583700° -81.711100°
Runways 1
Magnetic Variation 4.302° W

METAR

Not found

TAF

TAF SKSP 270430Z 2706/2806 08009KT 9999 FEW017 TX31/2718Z TN26/2710Z

Decode

Destination Runways

ID Width Length Bearing (true/mag) Surface Threshold Overrun Markings Lighting
06 148 ft / 45 m 7,799 ft / 2,377 m 59.54° / 63.84° ASPHALT 0 ft / 0 m 394 ft / 120 m PREC-APP EDGE THRESHOLD REIL-OMNI
24 148 ft / 45 m 7,799 ft / 2,377 m 239.55° / 243.85° ASPHALT 0 ft / 0 m 194 ft / 59 m PREC-APP EDGE THRESHOLD REIL-OMNI

Popular Alternatives